Challenge Paragon — 9V7950 — position and weather

sailwx.info

Track history (hours):
 
Tides and Currents Weather Stations Pressure Air Temp Water Temp Dewpoint Dewpoint Depression Visibility Wind Speed Wind Dir Waves Ship Positions

Challenge Paragon

Last reported at 2018-Feb-22 18:58 UTC. Time now 2018-Feb-22 19:28 UTC.
Position N 01°18' E 103°43'.

Length 180 m; draft 7 m.

Type: Tanker. MMSI: 563637000.

Date/timePositionNaut miles runAvg speedWind from/ knotsBaromVisibWave heightAir tempDewpointWater temp
2018-Feb-22 18:58N 01°18' E 103°43'0 0.0
2018-Feb-22 18:25N 01°18' E 103°43'0 0.0
2018-Feb-22 17:52N 01°18' E 103°43'0 0.0
2018-Feb-22 17:25N 01°18' E 103°43'0 0.0
2018-Feb-22 16:58N 01°18' E 103°43'0 0.0
2018-Feb-22 16:28N 01°18' E 103°43'0 0.0
2018-Feb-22 15:58N 01°18' E 103°43'0 0.0
2018-Feb-22 15:22N 01°18' E 103°43'0 0.0
2018-Feb-22 14:58N 01°18' E 103°43'0 0.0
2018-Feb-22 14:28N 01°18' E 103°43'0 0.0
2018-Feb-22 13:43N 01°18' E 103°43'0 0.0
2018-Feb-22 13:25N 01°18' E 103°43'0 0.0
2018-Feb-22 12:46N 01°18' E 103°43'0 0.0
2018-Feb-22 12:22N 01°18' E 103°43'0 0.0
2018-Feb-22 11:58N 01°18' E 103°43'0 0.0
2018-Feb-22 11:28N 01°18' E 103°43'0 0.2
2018-Feb-22 11:00N 01°18' E 103°43'1 1.9
2018-Feb-22 10:30N 01°18' E 103°42'3 6.3
2018-Feb-22 10:00N 01°16' E 103°39'4 7.1
2018-Feb-22 09:30N 01°14' E 103°42'4 7.0
2018-Feb-22 08:59N 01°18' E 103°44'0 0.5
2018-Feb-22 08:30N 01°18' E 103°43'0 0.0
2018-Feb-22 07:57N 01°18' E 103°43'0 0.0
2018-Feb-22 07:30N 01°18' E 103°43'0 0.0
2018-Feb-22 06:57N 01°18' E 103°43'0 0.0
2018-Feb-22 06:24N 01°18' E 103°43'0 0.0
2018-Feb-22 05:57N 01°18' E 103°43'0 0.0
2018-Feb-22 05:30N 01°18' E 103°43'0 0.0
2018-Feb-22 04:57N 01°18' E 103°43'0 0.0
2018-Feb-22 04:27N 01°18' E 103°43'0 0.0
2018-Feb-22 03:54N 01°18' E 103°43'0 0.0
2018-Feb-22 03:30N 01°18' E 103°43'0 0.0
2018-Feb-22 02:57N 01°18' E 103°43'0 0.0
2018-Feb-22 02:30N 01°18' E 103°43'0 0.0
2018-Feb-22 01:57N 01°18' E 103°43'0 0.0
2018-Feb-22 01:30N 01°18' E 103°43'0 0.0
2018-Feb-22 00:57N 01°18' E 103°43'0 0.0
2018-Feb-22 00:30N 01°18' E 103°43'0 0.0
2018-Feb-21 23:57N 01°18' E 103°43'0 0.0
2018-Feb-21 23:30N 01°18' E 103°43'0 0.8
2018-Feb-21 23:01N 01°17' E 103°44'4 8.3
2018-Feb-21 22:30N 01°15' E 103°47'3 6.2
2018-Feb-21 22:00N 01°13' E 103°49'0 0.2
2018-Feb-21 21:29N 01°13' E 103°49'0 0.0
2018-Feb-21 20:53N 01°13' E 103°49'0 0.2
2018-Feb-21 20:29N 01°13' E 103°49'0 0.1
2018-Feb-21 19:59N 01°13' E 103°49'1 1.2
2018-Feb-21 19:30N 01°12' E 103°50'5 9.4
2018-Feb-21 19:00N 01°14' E 103°54'5 9.2
2018-Feb-21 18:31N 01°16' E 103°58'2 4.2
2018-Feb-21 17:58N 01°16' E 104°01'3 5.8
2018-Feb-21 17:29N 01°16' E 104°03'4 7.9
2018-Feb-21 16:59N 01°17' E 104°07'10 1.1
2018-Feb-21 07:42N 01°14' E 103°58'313.3
2018-Feb-21 07:29N 01°13' E 103°55'611.2
2018-Feb-21 06:59N 01°11' E 103°50'4 8.7
2018-Feb-21 06:30N 01°14' E 103°47'4 8.6
2018-Feb-21 06:00N 01°18' E 103°44'0 0.3
2018-Feb-21 05:30N 01°17' E 103°44'0 0.0
2018-Feb-21 04:57N 01°17' E 103°44'0 0.0
2018-Feb-21 04:30N 01°17' E 103°44'0 0.0
2018-Feb-21 03:57N 01°17' E 103°44'0 0.0
2018-Feb-21 03:30N 01°17' E 103°44'0 0.0
2018-Feb-21 02:57N 01°17' E 103°44'0 0.0
2018-Feb-21 02:30N 01°17' E 103°44'0 0.0
2018-Feb-21 01:57N 01°17' E 103°44'0 0.0
2018-Feb-21 01:30N 01°17' E 103°44'0 0.0
2018-Feb-21 00:57N 01°17' E 103°44'0 0.0
2018-Feb-21 00:30N 01°17' E 103°44'0 0.0
2018-Feb-20 23:57N 01°17' E 103°44'0 0.0
2018-Feb-20 23:24N 01°17' E 103°44'0 0.0
2018-Feb-20 22:57N 01°17' E 103°44'0 0.0
2018-Feb-20 22:21N 01°17' E 103°44'0 0.0
2018-Feb-20 21:51N 01°17' E 103°44'0 0.0
2018-Feb-20 21:30N 01°17' E 103°44'0 0.0
2018-Feb-20 20:15N 01°17' E 103°44'0 0.0
2018-Feb-20 19:18N 01°17' E 103°44'0 0.0
2018-Feb-20 18:51N 01°17' E 103°44'0 0.0
2018-Feb-20 18:24N 01°17' E 103°44'0 0.0
2018-Feb-20 17:48N 01°17' E 103°44'0 0.0
2018-Feb-20 17:27N 01°17' E 103°44'0 0.0
2018-Feb-20 17:00N 01°17' E 103°44'0 0.0
2018-Feb-20 16:30N 01°17' E 103°44'0 0.0
2018-Feb-20 16:00N 01°17' E 103°44'0 0.0
2018-Feb-20 15:30N 01°17' E 103°44'0 0.0
2018-Feb-20 14:51N 01°17' E 103°44'0 0.0
2018-Feb-20 14:27N 01°17' E 103°44'0 0.0
2018-Feb-20 12:30N 01°17' E 103°44'0 0.0
2018-Feb-20 11:48N 01°17' E 103°44'0 0.0
2018-Feb-20 11:21N 01°17' E 103°44'0 0.0
2018-Feb-20 10:48N 01°17' E 103°44'0 0.0
2018-Feb-20 10:24N 01°17' E 103°44'0 0.0
2018-Feb-20 09:51N 01°17' E 103°44'0 0.0
2018-Feb-20 09:30N 01°17' E 103°44'0 0.0
2018-Feb-20 08:57N 01°17' E 103°44'0 0.0
2018-Feb-20 08:30N 01°17' E 103°44'0 0.0
2018-Feb-20 07:51N 01°17' E 103°44'0 0.0
2018-Feb-20 07:27N 01°17' E 103°44'0 0.0
2018-Feb-20 06:57N 01°17' E 103°44'0 0.0
2018-Feb-20 06:30N 01°17' E 103°44'0 0.0
2018-Feb-20 05:57N 01°17' E 103°44'0 0.0
2018-Feb-20 05:30N 01°17' E 103°44'0 0.0
2018-Feb-20 04:57N 01°17' E 103°44'0 0.0
2018-Feb-20 04:30N 01°17' E 103°44'0 0.0
2018-Feb-20 03:57N 01°17' E 103°44'0 0.0
2018-Feb-20 03:30N 01°17' E 103°44'0 0.0
2018-Feb-20 02:54N 01°17' E 103°44'0 0.0
2018-Feb-20 02:30N 01°17' E 103°44'0 0.0
2018-Feb-20 01:57N 01°17' E 103°44'0 0.0
2018-Feb-20 01:30N 01°17' E 103°44'0 0.0
2018-Feb-20 00:57N 01°17' E 103°44'0 0.0
2018-Feb-20 00:30N 01°17' E 103°44'0 0.0
2018-Feb-19 23:57N 01°17' E 103°44'0 0.0
2018-Feb-19 23:27N 01°17' E 103°44'0 0.0
2018-Feb-19 22:57N 01°17' E 103°44'0 0.0
2018-Feb-19 22:30N 01°17' E 103°44'0 0.0
2018-Feb-19 21:57N 01°17' E 103°44'0 0.0
2018-Feb-19 21:30N 01°17' E 103°44'0 0.0
2018-Feb-19 20:57N 01°17' E 103°44'0 0.0
2018-Feb-19 20:30N 01°17' E 103°44'0 0.0
2018-Feb-19 19:54N 01°17' E 103°44'0 0.0
2018-Feb-19 19:12N 01°17' E 103°44'0 0.0
2018-Feb-19 18:57N 01°17' E 103°44'0 0.0
2018-Feb-19 18:24N 01°17' E 103°44'0 0.1
2018-Feb-19 18:01N 01°17' E 103°44'2 5.0
2018-Feb-19 17:31N 01°16' E 103°46'3 6.8
2018-Feb-19 17:00N 01°14' E 103°48'0 0.0
2018-Feb-19 16:13N 01°14' E 103°48'0 0.1
2018-Feb-19 15:37N 01°14' E 103°48'0 1.9
2018-Feb-19 15:30N 01°13' E 103°48'3 5.1
2018-Feb-19 15:00N 01°12' E 103°50'611.1
2018-Feb-19 14:30N 01°15' E 103°56'3 5.7
2018-Feb-19 14:00N 01°16' E 103°58'3 4.5
2018-Feb-19 13:26N 01°16' E 104°01'  
Track history (hours):
 
Tides and Currents Weather Stations Pressure Air Temp Water Temp Dewpoint Dewpoint Depression Visibility Wind Speed Wind Dir Waves Ship Positions

Challenge Paragon

Last reported at 2018-Feb-22 18:58 UTC. Time now 2018-Feb-22 19:28 UTC.
Position N 01°18' E 103°43'.

Length 180 m; draft 7 m.

Type: Tanker. MMSI: 563637000.

Date/timePositionNaut miles runAvg speedWind from/ knotsBaromVisibWave heightAir tempDewpointWater temp
2018-Feb-22 18:58N 01°18' E 103°43'0 0.0
2018-Feb-22 18:25N 01°18' E 103°43'0 0.0
2018-Feb-22 17:52N 01°18' E 103°43'0 0.0
2018-Feb-22 17:25N 01°18' E 103°43'0 0.0
2018-Feb-22 16:58N 01°18' E 103°43'0 0.0
2018-Feb-22 16:28N 01°18' E 103°43'0 0.0
2018-Feb-22 15:58N 01°18' E 103°43'0 0.0
2018-Feb-22 15:22N 01°18' E 103°43'0 0.0
2018-Feb-22 14:58N 01°18' E 103°43'0 0.0
2018-Feb-22 14:28N 01°18' E 103°43'0 0.0
2018-Feb-22 13:43N 01°18' E 103°43'0 0.0
2018-Feb-22 13:25N 01°18' E 103°43'0 0.0
2018-Feb-22 12:46N 01°18' E 103°43'0 0.0
2018-Feb-22 12:22N 01°18' E 103°43'0 0.0
2018-Feb-22 11:58N 01°18' E 103°43'0 0.0
2018-Feb-22 11:28N 01°18' E 103°43'0 0.2
2018-Feb-22 11:00N 01°18' E 103°43'1 1.9
2018-Feb-22 10:30N 01°18' E 103°42'3 6.3
2018-Feb-22 10:00N 01°16' E 103°39'4 7.1
2018-Feb-22 09:30N 01°14' E 103°42'4 7.0
2018-Feb-22 08:59N 01°18' E 103°44'0 0.5
2018-Feb-22 08:30N 01°18' E 103°43'0 0.0
2018-Feb-22 07:57N 01°18' E 103°43'0 0.0
2018-Feb-22 07:30N 01°18' E 103°43'0 0.0
2018-Feb-22 06:57N 01°18' E 103°43'0 0.0
2018-Feb-22 06:24N 01°18' E 103°43'0 0.0
2018-Feb-22 05:57N 01°18' E 103°43'0 0.0
2018-Feb-22 05:30N 01°18' E 103°43'0 0.0
2018-Feb-22 04:57N 01°18' E 103°43'0 0.0
2018-Feb-22 04:27N 01°18' E 103°43'0 0.0
2018-Feb-22 03:54N 01°18' E 103°43'0 0.0
2018-Feb-22 03:30N 01°18' E 103°43'0 0.0
2018-Feb-22 02:57N 01°18' E 103°43'0 0.0
2018-Feb-22 02:30N 01°18' E 103°43'0 0.0
2018-Feb-22 01:57N 01°18' E 103°43'0 0.0
2018-Feb-22 01:30N 01°18' E 103°43'0 0.0
2018-Feb-22 00:57N 01°18' E 103°43'0 0.0
2018-Feb-22 00:30N 01°18' E 103°43'0 0.0
2018-Feb-21 23:57N 01°18' E 103°43'0 0.0
2018-Feb-21 23:30N 01°18' E 103°43'0 0.8
2018-Feb-21 23:01N 01°17' E 103°44'4 8.3
2018-Feb-21 22:30N 01°15' E 103°47'3 6.2
2018-Feb-21 22:00N 01°13' E 103°49'0 0.2
2018-Feb-21 21:29N 01°13' E 103°49'0 0.0
2018-Feb-21 20:53N 01°13' E 103°49'0 0.2
2018-Feb-21 20:29N 01°13' E 103°49'0 0.1
2018-Feb-21 19:59N 01°13' E 103°49'1 1.2
2018-Feb-21 19:30N 01°12' E 103°50'5 9.4
2018-Feb-21 19:00N 01°14' E 103°54'5 9.2
2018-Feb-21 18:31N 01°16' E 103°58'2 4.2
2018-Feb-21 17:58N 01°16' E 104°01'3 5.8
2018-Feb-21 17:29N 01°16' E 104°03'4 7.9
2018-Feb-21 16:59N 01°17' E 104°07'10 1.1
2018-Feb-21 07:42N 01°14' E 103°58'313.3
2018-Feb-21 07:29N 01°13' E 103°55'611.2
2018-Feb-21 06:59N 01°11' E 103°50'4 8.7
2018-Feb-21 06:30N 01°14' E 103°47'4 8.6
2018-Feb-21 06:00N 01°18' E 103°44'0 0.3
2018-Feb-21 05:30N 01°17' E 103°44'0 0.0
2018-Feb-21 04:57N 01°17' E 103°44'0 0.0
2018-Feb-21 04:30N 01°17' E 103°44'0 0.0
2018-Feb-21 03:57N 01°17' E 103°44'0 0.0
2018-Feb-21 03:30N 01°17' E 103°44'0 0.0
2018-Feb-21 02:57N 01°17' E 103°44'0 0.0
2018-Feb-21 02:30N 01°17' E 103°44'0 0.0
2018-Feb-21 01:57N 01°17' E 103°44'0 0.0
2018-Feb-21 01:30N 01°17' E 103°44'0 0.0
2018-Feb-21 00:57N 01°17' E 103°44'0 0.0
2018-Feb-21 00:30N 01°17' E 103°44'0 0.0
2018-Feb-20 23:57N 01°17' E 103°44'0 0.0
2018-Feb-20 23:24N 01°17' E 103°44'0 0.0
2018-Feb-20 22:57N 01°17' E 103°44'0 0.0
2018-Feb-20 22:21N 01°17' E 103°44'0 0.0
2018-Feb-20 21:51N 01°17' E 103°44'0 0.0
2018-Feb-20 21:30N 01°17' E 103°44'0 0.0
2018-Feb-20 20:15N 01°17' E 103°44'0 0.0
2018-Feb-20 19:18N 01°17' E 103°44'0 0.0
2018-Feb-20 18:51N 01°17' E 103°44'0 0.0
2018-Feb-20 18:24N 01°17' E 103°44'0 0.0
2018-Feb-20 17:48N 01°17' E 103°44'0 0.0
2018-Feb-20 17:27N 01°17' E 103°44'0 0.0
2018-Feb-20 17:00N 01°17' E 103°44'0 0.0
2018-Feb-20 16:30N 01°17' E 103°44'0 0.0
2018-Feb-20 16:00N 01°17' E 103°44'0 0.0
2018-Feb-20 15:30N 01°17' E 103°44'0 0.0
2018-Feb-20 14:51N 01°17' E 103°44'0 0.0
2018-Feb-20 14:27N 01°17' E 103°44'0 0.0
2018-Feb-20 12:30N 01°17' E 103°44'0 0.0
2018-Feb-20 11:48N 01°17' E 103°44'0 0.0
2018-Feb-20 11:21N 01°17' E 103°44'0 0.0
2018-Feb-20 10:48N 01°17' E 103°44'0 0.0
2018-Feb-20 10:24N 01°17' E 103°44'0 0.0
2018-Feb-20 09:51N 01°17' E 103°44'0 0.0
2018-Feb-20 09:30N 01°17' E 103°44'0 0.0
2018-Feb-20 08:57N 01°17' E 103°44'0 0.0
2018-Feb-20 08:30N 01°17' E 103°44'0 0.0
2018-Feb-20 07:51N 01°17' E 103°44'0 0.0
2018-Feb-20 07:27N 01°17' E 103°44'0 0.0
2018-Feb-20 06:57N 01°17' E 103°44'0 0.0
2018-Feb-20 06:30N 01°17' E 103°44'0 0.0
2018-Feb-20 05:57N 01°17' E 103°44'0 0.0
2018-Feb-20 05:30N 01°17' E 103°44'0 0.0
2018-Feb-20 04:57N 01°17' E 103°44'0 0.0
2018-Feb-20 04:30N 01°17' E 103°44'0 0.0
2018-Feb-20 03:57N 01°17' E 103°44'0 0.0
2018-Feb-20 03:30N 01°17' E 103°44'0 0.0
2018-Feb-20 02:54N 01°17' E 103°44'0 0.0
2018-Feb-20 02:30N 01°17' E 103°44'0 0.0
2018-Feb-20 01:57N 01°17' E 103°44'0 0.0
2018-Feb-20 01:30N 01°17' E 103°44'0 0.0
2018-Feb-20 00:57N 01°17' E 103°44'0 0.0
2018-Feb-20 00:30N 01°17' E 103°44'0 0.0
2018-Feb-19 23:57N 01°17' E 103°44'0 0.0
2018-Feb-19 23:27N 01°17' E 103°44'0 0.0
2018-Feb-19 22:57N 01°17' E 103°44'0 0.0
2018-Feb-19 22:30N 01°17' E 103°44'0 0.0
2018-Feb-19 21:57N 01°17' E 103°44'0 0.0
2018-Feb-19 21:30N 01°17' E 103°44'0 0.0
2018-Feb-19 20:57N 01°17' E 103°44'0 0.0
2018-Feb-19 20:30N 01°17' E 103°44'0 0.0
2018-Feb-19 19:54N 01°17' E 103°44'0 0.0
2018-Feb-19 19:12N 01°17' E 103°44'0 0.0
2018-Feb-19 18:57N 01°17' E 103°44'0 0.0
2018-Feb-19 18:24N 01°17' E 103°44'0 0.1
2018-Feb-19 18:01N 01°17' E 103°44'2 5.0
2018-Feb-19 17:31N 01°16' E 103°46'3 6.8
2018-Feb-19 17:00N 01°14' E 103°48'0 0.0
2018-Feb-19 16:13N 01°14' E 103°48'0 0.1
2018-Feb-19 15:37N 01°14' E 103°48'0 1.9
2018-Feb-19 15:30N 01°13' E 103°48'3 5.1
2018-Feb-19 15:00N 01°12' E 103°50'611.1
2018-Feb-19 14:30N 01°15' E 103°56'3 5.7
2018-Feb-19 14:00N 01°16' E 103°58'3 4.5
2018-Feb-19 13:26N 01°16' E 104°01'  

Dump ship's entire track history